Terminal Aerodrome Forecast
Issued by NWS Jackson, KY

Home | Current Version | Previous Version | Text Only | Print | Product List | Glossary On
Versions: 1 2 3 4 5 6 7 8 9 10 11 12 13
000
FTUS43 KJKL 270500
TAFLOZ
TAF
KLOZ 270535Z 2706/2806 19003KT P6SM BKN100
     FM271400 20008KT P6SM BKN060
     FM272300 22005KT P6SM VCSH BKN045
     FM280200 VRB04KT 6SM -SHRA BKN035=

USA.gov is the U.S. government's official web portal to all federal, state and local government web resources and services.